Time;durP1;ratioP1;P1;durP2;ratioP2;P2;SDS_P1;SDS_P2;PMS_P1;PMS_P2;Temp;Humidity;BMP_temperature;BMP_pressure;BME280_temperature;BME280_humidity;BME280_pressure;Samples;Min_cycle;Max_cycle;Signal;HPM_P1;HPM_P2
2020/12/08 00:02:22;;;;;;;10.43;7.67;;;3.80;99.90;;;;;;5041577;28;20443;-38
2020/12/08 00:04:47;;;;;;;11.33;8.00;;;3.90;99.90;;;;;;5046385;28;20267;-39
2020/12/08 00:07:13;;;;;;;12.73;7.67;;;4.00;99.90;;;;;;5047178;28;20190;-39
2020/12/08 00:09:39;;;;;;;10.43;7.63;;;3.80;99.90;;;;;;5047450;28;20181;-38
2020/12/08 00:12:05;;;;;;;9.33;7.73;;;3.70;99.90;;;;;;5046064;28;20703;-39
2020/12/08 00:14:31;;;;;;;10.97;7.70;;;3.80;99.90;;;;;;5045599;28;20402;-39
2020/12/08 00:16:57;;;;;;;9.60;7.60;;;3.60;99.90;;;;;;5045779;28;20505;-39
2020/12/08 00:19:24;;;;;;;8.70;7.70;;;3.60;99.90;;;;;;5047293;28;20435;-38
2020/12/08 00:21:49;;;;;;;9.67;7.70;;;3.70;99.90;;;;;;5046933;28;20452;-39
2020/12/08 00:24:15;;;;;;;9.73;7.97;;;3.70;99.90;;;;;;5046469;28;20491;-38
2020/12/08 00:26:42;;;;;;;10.27;8.10;;;3.60;99.90;;;;;;5047222;28;20236;-38
2020/12/08 00:29:09;;;;;;;13.87;8.80;;;3.50;99.90;;;;;;5047449;28;20463;-39
2020/12/08 00:31:36;;;;;;;11.63;8.70;;;3.50;99.90;;;;;;5045591;28;20493;-39
2020/12/08 00:34:02;;;;;;;11.70;9.17;;;3.60;99.90;;;;;;5046610;28;20432;-39
2020/12/08 00:36:28;;;;;;;9.97;7.90;;;3.50;99.90;;;;;;5047167;28;20474;-39
2020/12/08 00:38:54;;;;;;;12.30;8.30;;;3.00;99.90;;;;;;5046921;28;20470;-40
2020/12/08 00:41:22;;;;;;;11.83;8.43;;;3.10;99.90;;;;;;5047145;28;20424;-39
2020/12/08 00:43:48;;;;;;;11.67;9.37;;;3.10;99.90;;;;;;5045969;28;20460;-38
2020/12/08 00:46:15;;;;;;;12.47;9.70;;;3.30;99.90;;;;;;5045874;28;20557;-39
2020/12/08 00:48:42;;;;;;;12.33;9.20;;;3.40;99.90;;;;;;5046744;28;20443;-40
2020/12/08 00:51:08;;;;;;;10.37;9.03;;;3.50;99.90;;;;;;5050101;28;20821;-38
2020/12/08 00:53:34;;;;;;;12.93;9.20;;;3.40;99.90;;;;;;5048421;28;20481;-39
2020/12/08 00:56:00;;;;;;;11.60;8.70;;;3.30;99.90;;;;;;5050445;28;20429;-39
2020/12/08 00:58:27;;;;;;;10.50;9.40;;;3.40;99.90;;;;;;5049786;28;20182;-39
2020/12/08 01:00:53;;;;;;;12.60;10.10;;;3.40;99.90;;;;;;5050757;28;20447;-39
2020/12/08 01:03:19;;;;;;;11.03;9.17;;;3.30;99.90;;;;;;5049310;28;20428;-39
2020/12/08 01:05:45;;;;;;;12.50;9.00;;;3.40;99.90;;;;;;5050342;28;20464;-39
2020/12/08 01:08:11;;;;;;;12.30;9.20;;;3.30;99.90;;;;;;5049916;28;20439;-39
2020/12/08 01:10:37;;;;;;;10.97;9.70;;;3.50;99.90;;;;;;5050142;28;20197;-39
2020/12/08 01:13:03;;;;;;;11.90;9.10;;;3.60;99.90;;;;;;5049182;28;20437;-39
2020/12/08 01:15:29;;;;;;;12.30;9.50;;;3.40;99.90;;;;;;5049859;28;20567;-39
2020/12/08 01:17:55;;;;;;;11.60;9.33;;;3.80;99.90;;;;;;5049051;28;20537;-39
2020/12/08 01:20:20;;;;;;;11.53;9.50;;;3.60;99.90;;;;;;5048771;28;20452;-39
2020/12/08 01:22:46;;;;;;;10.83;8.53;;;3.70;99.90;;;;;;5050361;28;20194;-38
2020/12/08 01:25:12;;;;;;;12.13;8.83;;;3.60;99.90;;;;;;5049200;28;20210;-39
2020/12/08 01:27:38;;;;;;;10.17;8.70;;;3.40;99.90;;;;;;5049563;28;20576;-39
2020/12/08 01:30:05;;;;;;;11.30;9.07;;;3.10;99.90;;;;;;5049879;28;20186;-39
2020/12/08 01:32:30;;;;;;;12.40;9.43;;;3.10;99.90;;;;;;5049590;28;20865;-39
2020/12/08 01:34:56;;;;;;;12.27;9.30;;;3.00;99.90;;;;;;5049039;28;20507;-38
2020/12/08 01:37:22;;;;;;;11.23;8.90;;;3.00;99.90;;;;;;5049545;28;20193;-39
2020/12/08 01:39:48;;;;;;;12.00;9.07;;;3.20;99.90;;;;;;5049355;28;20226;-38
2020/12/08 01:42:13;;;;;;;9.90;8.30;;;3.00;99.90;;;;;;5049182;28;20523;-39
2020/12/08 01:44:46;;;;;;;11.83;9.27;;;2.80;99.90;;;;;;5049112;28;20213;-39
2020/12/08 01:47:13;;;;;;;11.10;8.73;;;2.90;99.90;;;;;;5049544;28;20614;-39
2020/12/08 01:49:39;;;;;;;12.87;9.67;;;2.80;99.90;;;;;;5049338;28;20471;-38
2020/12/08 01:52:05;;;;;;;11.40;9.13;;;3.20;99.90;;;;;;5049277;28;20424;-39
2020/12/08 01:54:31;;;;;;;11.20;9.20;;;3.20;99.90;;;;;;5048717;28;20416;-40
2020/12/08 01:56:58;;;;;;;11.67;9.27;;;3.10;99.90;;;;;;5048972;28;20432;-39
2020/12/08 01:59:23;;;;;;;10.17;8.67;;;3.00;99.90;;;;;;5049390;28;20446;-38
2020/12/08 02:01:49;;;;;;;12.47;9.87;;;2.90;99.90;;;;;;5048681;28;20412;-39
2020/12/08 02:04:15;;;;;;;12.80;10.03;;;3.20;99.90;;;;;;5048508;28;20786;-39
2020/12/08 02:06:41;;;;;;;13.97;10.03;;;3.10;99.90;;;;;;5047684;28;20444;-39
2020/12/08 02:09:06;;;;;;;10.90;9.00;;;3.00;99.90;;;;;;5049438;28;20276;-39
2020/12/08 02:11:32;;;;;;;13.47;10.37;;;2.90;99.90;;;;;;5049080;28;20409;-39
2020/12/08 02:13:58;;;;;;;11.53;9.17;;;3.10;99.90;;;;;;5048397;28;20243;-39
2020/12/08 02:16:24;;;;;;;13.43;9.80;;;2.70;99.90;;;;;;5047526;28;20198;-39
2020/12/08 02:18:49;;;;;;;11.27;9.03;;;2.70;99.90;;;;;;5048887;28;20620;-38
2020/12/08 02:21:16;;;;;;;14.23;10.50;;;2.90;99.90;;;;;;5048611;28;20288;-38
2020/12/08 02:23:51;;;;;;;15.10;10.80;;;2.90;99.90;;;;;;5046813;28;20202;-39
2020/12/08 02:26:17;;;;;;;12.43;10.00;;;2.80;99.90;;;;;;5048465;28;20489;-39
2020/12/08 02:28:42;;;;;;;11.90;8.60;;;2.50;99.90;;;;;;5048875;28;20428;-39
2020/12/08 02:31:08;;;;;;;12.13;10.37;;;2.60;99.90;;;;;;5048310;28;20559;-39
2020/12/08 02:33:34;;;;;;;12.57;9.93;;;2.60;99.90;;;;;;5048394;28;20539;-39
2020/12/08 02:36:00;;;;;;;12.33;9.47;;;2.50;99.90;;;;;;5048386;28;20878;-39
2020/12/08 02:38:26;;;;;;;14.83;11.00;;;2.50;99.90;;;;;;5047058;28;20189;-39
2020/12/08 02:40:52;;;;;;;14.10;10.83;;;2.60;99.90;;;;;;5048475;28;20323;-38
2020/12/08 02:43:18;;;;;;;15.27;11.03;;;2.70;99.90;;;;;;5047789;28;20836;-39
2020/12/08 02:45:44;;;;;;;14.30;10.60;;;2.60;99.90;;;;;;5048581;28;20591;-38
2020/12/08 02:48:10;;;;;;;14.47;10.07;;;2.70;99.90;;;;;;5046930;28;20477;-39
2020/12/08 02:50:36;;;;;;;15.97;9.93;;;2.70;99.90;;;;;;5048428;28;20194;-39
2020/12/08 02:53:02;;;;;;;13.53;10.60;;;2.70;99.90;;;;;;5047127;28;20181;-39
2020/12/08 02:55:28;;;;;;;13.47;10.57;;;2.70;99.90;;;;;;5048348;28;20490;-39
2020/12/08 02:57:54;;;;;;;16.33;11.00;;;2.60;99.90;;;;;;5046672;28;20447;-39
2020/12/08 03:00:20;;;;;;;15.27;10.33;;;2.60;99.90;;;;;;5048162;28;20193;-39
2020/12/08 03:02:45;;;;;;;14.03;11.47;;;2.70;99.90;;;;;;5048019;28;20565;-39
2020/12/08 03:05:11;;;;;;;15.37;10.57;;;2.90;99.90;;;;;;5047159;28;20456;-39
2020/12/08 03:07:40;;;;;;;12.60;10.23;;;2.80;99.90;;;;;;5046732;28;20571;-39
2020/12/08 03:10:07;;;;;;;14.20;11.10;;;2.70;99.90;;;;;;5048395;28;20568;-39
2020/12/08 03:12:34;;;;;;;12.70;9.70;;;2.50;99.90;;;;;;5045973;28;20413;-39
2020/12/08 03:15:00;;;;;;;16.10;10.50;;;2.60;99.90;;;;;;5047267;28;20416;-41
2020/12/08 03:17:25;;;;;;;12.00;10.10;;;2.40;99.90;;;;;;5046533;28;20448;-39
2020/12/08 03:19:51;;;;;;;16.73;10.53;;;2.70;99.90;;;;;;5047910;28;20208;-39
2020/12/08 03:22:17;;;;;;;13.63;9.70;;;2.50;99.90;;;;;;5047948;28;20247;-39
2020/12/08 03:24:43;;;;;;;16.03;12.00;;;2.60;99.90;;;;;;5047329;28;20259;-39
2020/12/08 03:27:09;;;;;;;12.67;10.30;;;2.70;99.90;;;;;;5047753;28;20942;-39
2020/12/08 03:29:34;;;;;;;14.10;10.90;;;2.60;99.90;;;;;;5047749;28;20185;-39
2020/12/08 03:32:00;;;;;;;14.27;10.87;;;2.70;99.90;;;;;;5047956;28;20247;-40
2020/12/08 03:34:26;;;;;;;14.97;10.87;;;2.50;99.90;;;;;;5047042;28;20186;-39
2020/12/08 03:36:52;;;;;;;16.30;11.97;;;2.60;99.90;;;;;;5047559;28;20190;-39
2020/12/08 03:39:17;;;;;;;14.50;10.50;;;2.60;99.90;;;;;;5047218;28;20683;-39
2020/12/08 03:41:43;;;;;;;18.20;12.03;;;2.90;99.90;;;;;;5047999;28;20240;-39
2020/12/08 03:44:10;;;;;;;18.70;12.40;;;2.70;99.90;;;;;;5047047;28;20243;-39
2020/12/08 03:46:36;;;;;;;15.13;10.87;;;2.90;99.90;;;;;;5047829;28;20511;-39
2020/12/08 03:49:02;;;;;;;20.27;12.30;;;2.60;99.90;;;;;;5047725;28;20420;-39
2020/12/08 03:51:28;;;;;;;14.13;11.10;;;2.80;99.90;;;;;;5047518;28;20997;-38
2020/12/08 03:53:54;;;;;;;16.77;12.53;;;2.50;99.90;;;;;;5046625;28;20185;-39
2020/12/08 03:56:20;;;;;;;18.20;13.20;;;2.80;99.90;;;;;;5047668;28;20224;-39
2020/12/08 03:58:47;;;;;;;15.33;11.90;;;2.60;99.90;;;;;;5063720;28;20189;-39
2020/12/08 04:01:20;;;;;;;15.40;11.23;;;2.50;99.90;;;;;;5067404;28;20846;-39
2020/12/08 04:03:48;;;;;;;18.33;11.53;;;2.80;99.90;;;;;;5065161;28;20945;-39
2020/12/08 04:06:14;;;;;;;14.43;11.17;;;2.70;99.90;;;;;;5067615;28;20479;-39
2020/12/08 04:08:44;;;;;;;17.80;11.80;;;2.60;99.90;;;;;;5067745;28;20822;-39
2020/12/08 04:11:11;;;;;;;16.60;12.83;;;2.80;99.90;;;;;;5067330;28;20423;-39
2020/12/08 04:13:37;;;;;;;15.43;11.90;;;2.60;99.90;;;;;;5066984;28;20893;-39
2020/12/08 04:16:03;;;;;;;18.43;12.57;;;2.80;99.90;;;;;;5064864;28;20434;-39
2020/12/08 04:18:29;;;;;;;18.30;12.23;;;2.90;99.90;;;;;;5066657;28;20450;-39
2020/12/08 04:20:55;;;;;;;16.40;12.67;;;2.90;99.90;;;;;;5066871;28;20423;-38
2020/12/08 04:23:22;;;;;;;15.73;12.50;;;2.60;99.90;;;;;;5067127;28;20950;-39
2020/12/08 04:25:49;;;;;;;17.70;12.57;;;3.00;99.90;;;;;;5070982;28;20209;-38
2020/12/08 04:28:15;;;;;;;18.10;12.23;;;3.00;99.90;;;;;;5059286;28;20421;-39
2020/12/08 04:30:41;;;;;;;14.90;11.37;;;2.90;99.90;;;;;;5056314;28;20430;-39
2020/12/08 04:33:07;;;;;;;20.23;12.10;;;3.10;99.90;;;;;;5069962;28;20438;-39
2020/12/08 04:35:34;;;;;;;17.83;12.97;;;3.10;99.90;;;;;;5070610;28;20423;-39
2020/12/08 04:38:00;;;;;;;17.70;13.30;;;3.20;99.90;;;;;;5070743;28;20457;-39
2020/12/08 04:40:26;;;;;;;17.80;13.30;;;3.20;99.90;;;;;;5070590;28;20427;-39
2020/12/08 04:42:57;;;;;;;18.53;12.90;;;3.10;99.90;;;;;;5070138;28;20450;-40
2020/12/08 04:45:23;;;;;;;16.70;12.23;;;3.20;99.90;;;;;;5070254;28;20459;-39
2020/12/08 04:47:50;;;;;;;15.80;11.80;;;2.90;99.90;;;;;;5069242;28;20431;-39
2020/12/08 04:50:18;;;;;;;16.80;11.47;;;3.20;99.90;;;;;;5070529;28;20429;-39
2020/12/08 04:52:44;;;;;;;17.87;11.80;;;2.90;99.90;;;;;;5070478;28;20939;-39
2020/12/08 04:55:10;;;;;;;17.10;12.27;;;3.00;99.90;;;;;;5070071;28;20608;-39
2020/12/08 04:57:39;;;;;;;15.80;11.90;;;3.10;99.90;;;;;;5070269;28;20621;-39
2020/12/08 05:00:12;;;;;;;16.93;12.37;;;3.20;99.90;;;;;;5069048;28;20185;-38
2020/12/08 05:02:56;;;;;;;18.50;12.73;;;3.00;99.90;;;;;;5070352;28;20427;-39
2020/12/08 05:05:23;;;;;;;17.53;12.93;;;3.10;99.90;;;;;;5070381;28;20824;-42
2020/12/08 05:07:49;;;;;;;16.20;12.90;;;3.20;99.90;;;;;;5070077;28;20423;-39
2020/12/08 05:10:25;;;;;;;17.97;13.03;;;3.00;99.90;;;;;;5070162;28;20419;-38
2020/12/08 05:12:51;;;;;;;17.87;13.07;;;3.20;99.90;;;;;;5069639;28;20538;-39
2020/12/08 05:15:17;;;;;;;16.77;12.60;;;3.50;99.90;;;;;;5069951;28;21039;-39
2020/12/08 05:17:44;;;;;;;18.33;13.23;;;3.30;99.90;;;;;;5068790;28;20216;-39
2020/12/08 05:20:14;;;;;;;20.23;13.57;;;3.40;99.90;;;;;;5069805;28;20667;-39
2020/12/08 05:22:55;;;;;;;19.13;13.20;;;3.40;99.90;;;;;;5069719;28;20410;-39
2020/12/08 05:25:23;;;;;;;17.30;12.73;;;3.60;99.90;;;;;;5069686;28;20451;-42
2020/12/08 05:27:50;;;;;;;17.00;12.53;;;3.50;99.90;;;;;;5065539;28;20423;-39
2020/12/08 05:30:16;;;;;;;16.40;12.37;;;3.50;99.90;;;;;;5038466;28;20424;-41
2020/12/08 05:32:42;;;;;;;18.53;13.20;;;3.30;99.90;;;;;;5049712;28;20435;-40
2020/12/08 05:35:11;;;;;;;15.87;12.20;;;3.50;99.90;;;;;;5048408;28;20424;-38
2020/12/08 05:37:39;;;;;;;14.80;11.83;;;3.60;99.90;;;;;;5049236;28;20440;-38
2020/12/08 05:40:11;;;;;;;20.33;13.30;;;3.60;99.90;;;;;;5049736;28;20794;-39
2020/12/08 05:42:39;;;;;;;19.70;13.67;;;3.70;99.90;;;;;;5049693;28;20424;-39
2020/12/08 05:45:13;;;;;;;17.53;12.93;;;3.80;99.90;;;;;;5048921;28;20476;-39
2020/12/08 05:47:44;;;;;;;18.37;13.23;;;3.40;99.90;;;;;;5049316;28;20417;-39
2020/12/08 05:50:10;;;;;;;17.13;12.00;;;3.50;99.90;;;;;;5041764;28;20435;-39
2020/12/08 05:52:39;;;;;;;16.30;12.83;;;3.40;99.90;;;;;;5048902;28;20424;-39
2020/12/08 05:55:10;;;;;;;15.83;12.07;;;3.40;99.90;;;;;;5048709;28;20473;-39
2020/12/08 05:57:36;;;;;;;13.97;11.53;;;3.30;99.90;;;;;;5043598;28;20938;-40
2020/12/08 06:00:07;;;;;;;16.83;12.80;;;3.30;99.90;;;;;;5049251;28;20420;-39
2020/12/08 06:02:33;;;;;;;15.23;12.00;;;3.30;99.90;;;;;;5045278;28;20428;-39
2020/12/08 06:04:59;;;;;;;18.53;13.03;;;3.30;99.90;;;;;;5048500;28;20742;-41
2020/12/08 06:07:32;;;;;;;21.70;14.73;;;3.20;99.90;;;;;;5049376;28;20533;-39
2020/12/08 06:10:08;;;;;;;16.83;12.07;;;3.30;99.90;;;;;;5049005;28;20439;-39
2020/12/08 06:12:34;;;;;;;17.17;12.67;;;3.70;99.90;;;;;;5048937;28;20431;-39
2020/12/08 06:15:00;;;;;;;28.53;18.20;;;3.60;99.90;;;;;;5048217;28;20501;-40
2020/12/08 06:17:26;;;;;;;30.23;20.30;;;3.40;99.90;;;;;;5048025;28;21093;-39
2020/12/08 06:19:52;;;;;;;25.87;19.10;;;3.40;99.90;;;;;;5048841;28;20190;-39
2020/12/08 06:22:18;;;;;;;25.03;18.13;;;3.50;99.90;;;;;;5048880;28;20197;-39
2020/12/08 06:24:54;;;;;;;20.53;16.20;;;3.60;99.90;;;;;;5047699;28;20653;-39
2020/12/08 06:27:24;;;;;;;21.43;15.00;;;3.50;99.90;;;;;;5048784;28;20432;-39
2020/12/08 06:29:54;;;;;;;20.20;14.73;;;3.70;99.90;;;;;;5048372;28;20399;-39
2020/12/08 06:32:29;;;;;;;23.27;17.07;;;3.70;99.90;;;;;;5048633;28;20431;-39
2020/12/08 06:35:09;;;;;;;23.10;16.27;;;3.80;99.90;;;;;;5047859;28;20423;-39
2020/12/08 06:37:36;;;;;;;18.83;14.40;;;4.00;99.90;;;;;;5047255;28;20430;-39
2020/12/08 06:40:10;;;;;;;17.70;13.43;;;3.70;99.90;;;;;;5048166;28;20773;-39
2020/12/08 06:42:36;;;;;;;17.37;13.40;;;3.80;99.90;;;;;;5047099;28;20415;-39
2020/12/08 06:45:20;;;;;;;16.40;12.37;;;3.80;99.90;;;;;;5047698;28;20478;-39
2020/12/08 06:47:47;;;;;;;15.73;11.27;;;3.70;99.90;;;;;;5048271;28;20519;-39
2020/12/08 06:50:28;;;;;;;19.13;13.07;;;4.10;99.90;;;;;;5048153;28;20425;-39
2020/12/08 06:52:59;;;;;;;17.53;12.47;;;4.00;99.90;;;;;;5035995;28;20832;-41
2020/12/08 06:55:26;;;;;;;17.60;12.47;;;4.00;99.90;;;;;;5045496;28;20452;-40
2020/12/08 06:57:52;;;;;;;17.97;12.37;;;4.00;99.90;;;;;;5048169;28;20439;-39
2020/12/08 07:00:18;;;;;;;20.53;12.27;;;3.90;99.90;;;;;;5046540;28;20420;-40
2020/12/08 07:02:51;;;;;;;18.87;12.70;;;3.90;99.90;;;;;;5045647;28;20471;-38
2020/12/08 07:05:27;;;;;;;17.30;12.53;;;4.00;99.90;;;;;;5043142;28;21153;-38
2020/12/08 07:07:53;;;;;;;20.10;13.00;;;3.90;99.90;;;;;;5048479;28;20503;-39
2020/12/08 07:10:20;;;;;;;18.87;13.37;;;3.70;99.90;;;;;;5047540;28;20435;-39
2020/12/08 07:12:50;;;;;;;19.67;12.37;;;3.90;99.90;;;;;;5049193;28;20836;-39
2020/12/08 07:15:17;;;;;;;16.87;12.20;;;3.70;99.90;;;;;;5065884;28;20894;-39
2020/12/08 07:17:43;;;;;;;14.87;11.40;;;3.80;99.90;;;;;;5066189;28;20451;-38
2020/12/08 07:20:10;;;;;;;19.83;13.60;;;4.00;99.90;;;;;;5067909;28;20481;-39
2020/12/08 07:22:45;;;;;;;16.23;11.80;;;3.70;99.90;;;;;;5067907;28;20264;-39
2020/12/08 07:25:16;;;;;;;16.77;11.30;;;4.10;99.90;;;;;;5067241;28;20461;-39
2020/12/08 07:27:45;;;;;;;15.10;11.57;;;3.80;99.90;;;;;;5065709;28;20415;-39
2020/12/08 07:30:12;;;;;;;14.00;11.80;;;4.20;99.90;;;;;;5036137;28;20471;-39
2020/12/08 07:32:38;;;;;;;15.60;11.13;;;4.00;99.90;;;;;;5047687;28;20436;-39
2020/12/08 07:35:05;;;;;;;15.77;11.33;;;4.00;99.90;;;;;;5047052;28;20938;-39
2020/12/08 07:37:38;;;;;;;14.97;10.63;;;4.20;99.90;;;;;;5047480;28;20196;-40
2020/12/08 07:40:10;;;;;;;15.30;11.20;;;4.20;99.90;;;;;;5048146;28;20438;-39
2020/12/08 07:42:36;;;;;;;14.87;10.10;;;4.10;99.90;;;;;;5047369;28;20440;-39
2020/12/08 07:45:07;;;;;;;13.33;10.70;;;4.10;99.90;;;;;;5047077;28;20585;-39
2020/12/08 07:47:33;;;;;;;13.30;10.37;;;4.20;99.90;;;;;;5048601;28;20460;-39
2020/12/08 07:49:59;;;;;;;14.00;11.43;;;4.20;99.90;;;;;;5047464;28;20449;-39
2020/12/08 07:52:24;;;;;;;12.80;10.67;;;4.40;99.90;;;;;;5047091;28;20200;-40
2020/12/08 07:54:50;;;;;;;14.30;11.20;;;4.10;99.90;;;;;;5047409;28;20194;-39
2020/12/08 07:57:16;;;;;;;14.00;10.60;;;4.20;99.90;;;;;;5046922;28;20208;-38
2020/12/08 07:59:41;;;;;;;14.63;10.23;;;4.30;99.90;;;;;;5061076;28;20199;-38
2020/12/08 08:02:07;;;;;;;15.80;11.00;;;4.10;99.90;;;;;;5071483;28;20192;-39
2020/12/08 08:04:33;;;;;;;15.80;11.03;;;4.20;99.90;;;;;;5071137;28;20337;-40
2020/12/08 08:06:59;;;;;;;16.13;10.60;;;4.10;99.90;;;;;;5070900;28;20217;-39
2020/12/08 08:09:24;;;;;;;15.53;10.63;;;4.30;99.90;;;;;;5071580;28;20188;-41
2020/12/08 08:11:50;;;;;;;15.03;11.10;;;4.30;99.90;;;;;;5071337;28;20383;-39
2020/12/08 08:14:16;;;;;;;16.70;11.73;;;4.20;99.90;;;;;;5070946;28;20812;-38
2020/12/08 08:16:41;;;;;;;17.00;12.10;;;4.20;99.90;;;;;;5069605;28;20209;-40
2020/12/08 08:19:07;;;;;;;13.10;10.63;;;4.20;99.90;;;;;;5070998;28;20407;-39
2020/12/08 08:21:33;;;;;;;14.93;10.73;;;4.40;99.90;;;;;;5071476;28;20197;-39
2020/12/08 08:23:59;;;;;;;13.87;10.90;;;4.50;99.90;;;;;;5064647;28;20221;-39
2020/12/08 08:26:26;;;;;;;15.67;10.43;;;4.40;99.90;;;;;;5049438;28;20192;-39
2020/12/08 08:28:51;;;;;;;17.97;11.33;;;4.60;99.90;;;;;;5040098;28;20429;-39
2020/12/08 08:31:17;;;;;;;12.23;10.07;;;4.60;99.90;;;;;;5048556;28;20768;-39
2020/12/08 08:33:43;;;;;;;12.40;9.90;;;4.80;99.90;;;;;;5060489;28;20465;-40
2020/12/08 08:36:09;;;;;;;15.63;10.40;;;4.90;99.90;;;;;;5071052;28;20208;-39
2020/12/08 08:38:35;;;;;;;12.57;9.33;;;4.80;99.90;;;;;;5069612;28;20192;-39
2020/12/08 08:41:00;;;;;;;13.53;10.30;;;4.60;99.90;;;;;;5070566;28;20787;-39
2020/12/08 08:43:27;;;;;;;11.20;8.20;;;4.90;99.90;;;;;;5069241;28;20224;-39
2020/12/08 08:45:53;;;;;;;11.50;8.70;;;5.10;99.90;;;;;;5070688;28;20583;-39
2020/12/08 08:48:20;;;;;;;10.90;8.40;;;5.00;99.90;;;;;;5070676;28;20712;-39
2020/12/08 08:50:47;;;;;;;10.93;8.37;;;4.70;99.90;;;;;;5070931;28;20427;-38
2020/12/08 08:53:12;;;;;;;10.63;7.93;;;4.90;99.90;;;;;;5069754;28;21122;-39
2020/12/08 08:55:38;;;;;;;9.40;8.13;;;4.90;99.90;;;;;;5070125;28;20423;-39
2020/12/08 08:58:04;;;;;;;10.70;8.30;;;4.80;99.90;;;;;;5070732;28;20243;-38
2020/12/08 09:00:29;;;;;;;10.33;8.17;;;5.00;99.90;;;;;;5070532;28;20330;-39
2020/12/08 09:02:58;;;;;;;11.40;8.27;;;4.80;99.90;;;;;;5070395;28;20188;-39
2020/12/08 09:05:24;;;;;;;11.20;8.73;;;4.90;99.90;;;;;;5068256;28;20228;-40
2020/12/08 09:07:50;;;;;;;10.47;8.07;;;4.70;99.90;;;;;;5069115;28;20734;-39
2020/12/08 09:10:16;;;;;;;10.27;8.40;;;4.80;99.90;;;;;;5068117;28;20430;-39
2020/12/08 09:12:42;;;;;;;10.57;7.63;;;5.10;99.90;;;;;;5069618;28;20185;-39
2020/12/08 09:15:08;;;;;;;8.23;6.60;;;4.80;99.90;;;;;;5068576;28;20522;-39
2020/12/08 09:17:34;;;;;;;9.20;7.00;;;5.20;99.90;;;;;;5068008;28;20295;-39
2020/12/08 09:20:00;;;;;;;10.70;7.67;;;5.00;99.90;;;;;;5069409;28;20581;-39
2020/12/08 09:22:26;;;;;;;9.07;6.83;;;4.80;99.90;;;;;;5069144;28;20791;-39
2020/12/08 09:24:51;;;;;;;7.67;6.70;;;5.20;99.90;;;;;;5068518;28;20458;-40
2020/12/08 09:27:17;;;;;;;9.27;6.67;;;5.20;99.90;;;;;;5069420;28;20185;-39
2020/12/08 09:29:43;;;;;;;9.40;7.37;;;4.90;99.90;;;;;;5038149;28;20177;-38
2020/12/08 09:32:09;;;;;;;10.13;7.43;;;4.90;99.90;;;;;;5049239;28;20290;-39
2020/12/08 09:34:36;;;;;;;12.40;7.47;;;5.00;99.90;;;;;;5048788;28;20424;-39
2020/12/08 09:37:02;;;;;;;7.60;6.53;;;5.10;99.90;;;;;;5048995;28;20954;-39
2020/12/08 09:39:28;;;;;;;7.57;6.50;;;5.00;99.90;;;;;;5049072;28;20432;-38
2020/12/08 09:41:54;;;;;;;8.60;5.90;;;4.90;99.90;;;;;;5049161;28;20432;-39
2020/12/08 09:44:20;;;;;;;8.97;7.00;;;5.00;99.90;;;;;;5047359;28;20460;-39
2020/12/08 09:46:46;;;;;;;9.50;7.57;;;5.20;99.90;;;;;;5049266;28;20440;-38
2020/12/08 09:49:13;;;;;;;9.00;6.33;;;5.10;99.90;;;;;;5049345;28;20425;-39
2020/12/08 09:51:39;;;;;;;8.30;7.30;;;5.10;99.90;;;;;;5048481;28;20208;-40
2020/12/08 09:54:05;;;;;;;9.40;6.90;;;5.10;99.90;;;;;;5048146;28;20447;-38
2020/12/08 09:56:31;;;;;;;10.23;8.40;;;5.20;99.90;;;;;;5049111;28;20805;-40
2020/12/08 09:58:57;;;;;;;10.37;8.10;;;5.10;99.90;;;;;;5048545;28;20426;-40
2020/12/08 10:01:27;;;;;;;9.83;7.93;;;4.90;99.90;;;;;;5048889;28;20443;-39
2020/12/08 10:03:54;;;;;;;9.37;6.90;;;5.00;99.90;;;;;;5048399;28;20460;-39
2020/12/08 10:06:21;;;;;;;11.37;8.83;;;5.10;99.90;;;;;;5049213;28;20514;-39
2020/12/08 10:08:47;;;;;;;10.53;7.97;;;5.30;99.90;;;;;;5048984;28;20432;-39
2020/12/08 10:11:16;;;;;;;8.27;7.00;;;5.40;99.90;;;;;;5047942;28;20990;-39
2020/12/08 10:13:42;;;;;;;9.70;7.30;;;5.30;99.90;;;;;;5048325;28;20602;-39
2020/12/08 10:16:09;;;;;;;8.60;7.20;;;5.40;99.90;;;;;;5047500;28;20964;-40
2020/12/08 10:18:35;;;;;;;9.50;7.67;;;5.50;99.90;;;;;;5048993;28;20424;-39
2020/12/08 10:21:02;;;;;;;9.03;7.30;;;5.30;99.90;;;;;;5048347;28;20428;-39
2020/12/08 10:23:28;;;;;;;9.30;7.80;;;5.40;99.90;;;;;;5048301;28;20521;-39
2020/12/08 10:25:54;;;;;;;9.83;7.23;;;5.30;99.90;;;;;;5049086;28;20905;-39
2020/12/08 10:28:21;;;;;;;9.97;7.60;;;5.40;99.90;;;;;;5048748;28;20454;-39
2020/12/08 10:30:48;;;;;;;10.50;7.53;;;5.40;99.90;;;;;;5048983;28;20616;-39
2020/12/08 10:33:15;;;;;;;9.00;7.50;;;5.50;99.90;;;;;;5047930;28;20507;-39
2020/12/08 10:35:40;;;;;;;11.00;7.47;;;5.30;99.90;;;;;;5048608;28;20790;-39
2020/12/08 10:38:06;;;;;;;8.93;6.83;;;5.50;99.90;;;;;;5048618;28;20428;-39
2020/12/08 10:40:33;;;;;;;7.73;6.40;;;5.30;99.90;;;;;;5048667;28;20551;-40
2020/12/08 10:42:58;;;;;;;9.17;7.00;;;5.50;99.90;;;;;;5048072;28;20178;-39
2020/12/08 10:45:24;;;;;;;7.80;6.23;;;5.50;99.90;;;;;;5048494;28;20513;-43
2020/12/08 10:47:49;;;;;;;7.43;6.30;;;5.50;99.90;;;;;;5048515;28;20370;-39
2020/12/08 10:50:15;;;;;;;8.77;5.50;;;5.60;99.90;;;;;;5047919;28;20280;-39
2020/12/08 10:52:41;;;;;;;7.10;5.50;;;5.60;99.90;;;;;;5047118;28;20194;-39
2020/12/08 10:55:06;;;;;;;7.37;5.67;;;5.90;99.90;;;;;;5047749;28;20243;-39
2020/12/08 10:57:32;;;;;;;7.90;6.23;;;5.70;99.90;;;;;;5048209;28;20406;-39
2020/12/08 10:59:58;;;;;;;6.43;5.43;;;5.90;99.90;;;;;;5048567;28;20597;-39
2020/12/08 11:02:24;;;;;;;6.87;5.60;;;5.80;99.90;;;;;;5048168;28;20208;-38
2020/12/08 11:04:49;;;;;;;7.17;6.00;;;5.60;99.90;;;;;;5047211;28;20297;-39
2020/12/08 11:07:15;;;;;;;6.50;5.33;;;5.70;99.90;;;;;;5048327;28;20428;-39
2020/12/08 11:09:43;;;;;;;6.27;5.60;;;5.60;99.90;;;;;;5048003;28;20200;-39
2020/12/08 11:12:09;;;;;;;5.80;5.20;;;5.70;99.90;;;;;;5047983;28;20194;-39
2020/12/08 11:14:35;;;;;;;8.10;5.27;;;5.60;99.90;;;;;;5047354;28;20423;-39
2020/12/08 11:17:01;;;;;;;6.50;5.30;;;5.50;99.90;;;;;;5042642;28;20864;-40
2020/12/08 11:19:26;;;;;;;8.07;6.40;;;5.90;99.90;;;;;;5046831;28;20657;-39
2020/12/08 11:21:52;;;;;;;6.37;5.33;;;5.80;99.90;;;;;;5047826;28;20255;-39
2020/12/08 11:24:18;;;;;;;6.40;5.30;;;5.90;99.90;;;;;;5046493;28;20765;-40
2020/12/08 11:26:45;;;;;;;5.97;5.33;;;5.80;99.90;;;;;;5047212;28;20710;-39
2020/12/08 11:29:11;;;;;;;6.30;5.57;;;5.70;99.90;;;;;;5046082;28;20178;-39
2020/12/08 11:31:37;;;;;;;8.50;6.10;;;5.90;99.90;;;;;;5046802;28;21139;-39
2020/12/08 11:34:02;;;;;;;8.20;6.80;;;5.70;99.90;;;;;;5045744;28;20428;-39
2020/12/08 11:36:28;;;;;;;8.97;6.77;;;5.90;99.90;;;;;;5047247;28;20194;-39
2020/12/08 11:38:54;;;;;;;9.50;6.17;;;5.80;99.90;;;;;;5047047;28;20198;-39
2020/12/08 11:41:20;;;;;;;8.70;6.60;;;5.80;99.90;;;;;;5046659;28;20420;-39
2020/12/08 11:43:46;;;;;;;7.73;6.17;;;5.70;99.90;;;;;;5046493;28;20220;-39
2020/12/08 11:46:12;;;;;;;7.90;6.43;;;5.80;99.90;;;;;;5046626;28;20217;-39
2020/12/08 11:48:40;;;;;;;7.20;6.40;;;5.90;99.90;;;;;;5046478;28;20197;-39
2020/12/08 11:51:05;;;;;;;8.63;7.13;;;6.00;99.90;;;;;;5047228;28;20424;-39
2020/12/08 11:53:31;;;;;;;9.53;7.53;;;5.90;99.90;;;;;;5046330;28;20420;-39
2020/12/08 11:55:57;;;;;;;7.43;6.07;;;5.80;99.90;;;;;;5046983;28;20639;-39
2020/12/08 11:58:23;;;;;;;7.83;6.50;;;5.90;99.90;;;;;;5045280;28;20220;-39
2020/12/08 12:00:48;;;;;;;9.50;7.00;;;5.70;99.90;;;;;;5046990;28;20193;-38
2020/12/08 12:03:14;;;;;;;8.60;6.97;;;5.70;99.90;;;;;;5044434;28;20243;-39
2020/12/08 12:05:40;;;;;;;9.70;7.57;;;5.80;99.90;;;;;;5047670;28;20228;-39
2020/12/08 12:08:06;;;;;;;8.60;7.40;;;5.70;99.90;;;;;;5047326;28;20200;-39
2020/12/08 12:10:32;;;;;;;14.97;9.47;;;6.10;99.90;;;;;;5046307;28;20469;-39
2020/12/08 12:12:58;;;;;;;11.20;8.50;;;6.00;99.90;;;;;;5047023;28;20424;-39
2020/12/08 12:15:24;;;;;;;12.43;7.87;;;6.00;99.90;;;;;;5046043;28;20439;-39
2020/12/08 12:17:49;;;;;;;9.20;7.93;;;6.00;99.90;;;;;;5045466;28;20211;-38
2020/12/08 12:20:15;;;;;;;10.43;7.60;;;6.00;99.90;;;;;;5047397;28;20205;-40
2020/12/08 12:22:41;;;;;;;10.70;8.27;;;5.90;99.90;;;;;;5047389;28;20645;-38
2020/12/08 12:25:07;;;;;;;11.43;8.83;;;5.90;99.90;;;;;;5046678;28;20214;-39
2020/12/08 12:27:32;;;;;;;13.10;9.67;;;6.00;99.90;;;;;;5047467;28;20192;-39
2020/12/08 12:29:58;;;;;;;10.27;7.83;;;6.20;99.90;;;;;;5045914;28;20431;-38
2020/12/08 12:32:25;;;;;;;11.50;8.50;;;6.40;99.90;;;;;;5047522;28;20240;-38
2020/12/08 12:34:50;;;;;;;11.57;8.60;;;6.30;99.90;;;;;;5045135;28;20490;-39
2020/12/08 12:37:16;;;;;;;12.07;10.07;;;6.20;99.90;;;;;;5047137;28;20432;-39
2020/12/08 12:39:42;;;;;;;13.10;11.07;;;6.30;99.90;;;;;;5047019;28;20209;-39
2020/12/08 12:42:08;;;;;;;14.50;10.87;;;6.10;99.90;;;;;;5045930;28;20190;-39